sensor_id;sensor_type;location;lat;lon;timestamp;P1;durP1;ratioP1;P2;durP2;ratioP2
22814;SDS011;11574;51.058;13.712;2023-04-24T00:01:46;5.90;;;3.63;;
22814;SDS011;11574;51.058;13.712;2023-04-24T00:06:48;6.03;;;3.60;;
22814;SDS011;11574;51.058;13.712;2023-04-24T00:11:55;5.67;;;3.90;;
22814;SDS011;11574;51.058;13.712;2023-04-24T00:16:57;5.43;;;3.87;;
22814;SDS011;11574;51.058;13.712;2023-04-24T00:21:59;7.47;;;3.50;;
22814;SDS011;11574;51.058;13.712;2023-04-24T00:27:04;5.33;;;3.50;;
22814;SDS011;11574;51.058;13.712;2023-04-24T00:32:06;4.87;;;3.60;;
22814;SDS011;11574;51.058;13.712;2023-04-24T00:37:08;4.43;;;3.30;;
22814;SDS011;11574;51.058;13.712;2023-04-24T00:42:13;6.80;;;3.37;;
22814;SDS011;11574;51.058;13.712;2023-04-24T00:47:15;5.63;;;3.33;;
22814;SDS011;11574;51.058;13.712;2023-04-24T00:52:17;6.20;;;3.80;;
22814;SDS011;11574;51.058;13.712;2023-04-24T00:57:21;5.10;;;3.70;;
22814;SDS011;11574;51.058;13.712;2023-04-24T01:02:24;5.87;;;3.70;;
22814;SDS011;11574;51.058;13.712;2023-04-24T01:07:26;6.33;;;3.83;;
22814;SDS011;11574;51.058;13.712;2023-04-24T01:12:30;5.83;;;3.80;;
22814;SDS011;11574;51.058;13.712;2023-04-24T01:17:32;4.90;;;3.20;;
22814;SDS011;11574;51.058;13.712;2023-04-24T01:22:36;7.00;;;3.50;;
22814;SDS011;11574;51.058;13.712;2023-04-24T01:27:38;6.20;;;3.70;;
22814;SDS011;11574;51.058;13.712;2023-04-24T01:32:40;7.70;;;3.97;;
22814;SDS011;11574;51.058;13.712;2023-04-24T01:37:45;9.13;;;3.73;;
22814;SDS011;11574;51.058;13.712;2023-04-24T01:42:47;4.97;;;3.47;;
22814;SDS011;11574;51.058;13.712;2023-04-24T01:47:50;7.93;;;3.57;;
22814;SDS011;11574;51.058;13.712;2023-04-24T01:52:53;7.13;;;4.03;;
22814;SDS011;11574;51.058;13.712;2023-04-24T01:57:56;5.53;;;4.00;;
22814;SDS011;11574;51.058;13.712;2023-04-24T02:02:58;5.33;;;3.87;;
22814;SDS011;11574;51.058;13.712;2023-04-24T02:08:03;6.07;;;4.27;;
22814;SDS011;11574;51.058;13.712;2023-04-24T02:13:05;6.37;;;3.73;;
22814;SDS011;11574;51.058;13.712;2023-04-24T02:18:07;6.20;;;3.77;;
22814;SDS011;11574;51.058;13.712;2023-04-24T02:23:11;6.00;;;4.00;;
22814;SDS011;11574;51.058;13.712;2023-04-24T02:28:14;6.63;;;4.20;;
22814;SDS011;11574;51.058;13.712;2023-04-24T02:33:16;6.33;;;3.90;;
22814;SDS011;11574;51.058;13.712;2023-04-24T02:38:20;6.43;;;3.80;;
22814;SDS011;11574;51.058;13.712;2023-04-24T02:43:22;6.80;;;3.40;;
22814;SDS011;11574;51.058;13.712;2023-04-24T02:48:24;8.50;;;4.00;;
22814;SDS011;11574;51.058;13.712;2023-04-24T02:53:28;5.20;;;4.00;;
22814;SDS011;11574;51.058;13.712;2023-04-24T02:58:30;6.13;;;3.93;;
22814;SDS011;11574;51.058;13.712;2023-04-24T03:03:33;7.50;;;4.30;;
22814;SDS011;11574;51.058;13.712;2023-04-24T03:08:36;7.00;;;3.70;;
22814;SDS011;11574;51.058;13.712;2023-04-24T03:13:39;5.17;;;2.80;;
22814;SDS011;11574;51.058;13.712;2023-04-24T03:18:41;6.73;;;3.73;;
22814;SDS011;11574;51.058;13.712;2023-04-24T03:23:44;6.00;;;3.43;;
22814;SDS011;11574;51.058;13.712;2023-04-24T03:28:46;5.10;;;3.30;;
22814;SDS011;11574;51.058;13.712;2023-04-24T03:33:49;5.27;;;3.33;;
22814;SDS011;11574;51.058;13.712;2023-04-24T03:38:52;5.63;;;3.17;;
22814;SDS011;11574;51.058;13.712;2023-04-24T03:43:54;4.87;;;3.10;;
22814;SDS011;11574;51.058;13.712;2023-04-24T03:48:57;6.60;;;2.90;;
22814;SDS011;11574;51.058;13.712;2023-04-24T03:54:00;4.63;;;2.80;;
22814;SDS011;11574;51.058;13.712;2023-04-24T03:59:03;4.47;;;2.47;;
22814;SDS011;11574;51.058;13.712;2023-04-24T04:04:05;2.73;;;1.80;;
22814;SDS011;11574;51.058;13.712;2023-04-24T04:09:09;2.50;;;1.40;;
22814;SDS011;11574;51.058;13.712;2023-04-24T04:14:12;3.00;;;1.20;;
22814;SDS011;11574;51.058;13.712;2023-04-24T04:19:14;4.50;;;1.10;;
22814;SDS011;11574;51.058;13.712;2023-04-24T04:24:18;3.97;;;0.97;;
22814;SDS011;11574;51.058;13.712;2023-04-24T04:29:21;2.20;;;1.30;;
22814;SDS011;11574;51.058;13.712;2023-04-24T04:34:23;1.40;;;0.93;;
22814;SDS011;11574;51.058;13.712;2023-04-24T04:39:27;1.07;;;0.63;;
22814;SDS011;11574;51.058;13.712;2023-04-24T04:44:30;2.70;;;0.80;;
22814;SDS011;11574;51.058;13.712;2023-04-24T04:49:32;0.97;;;0.60;;
22814;SDS011;11574;51.058;13.712;2023-04-24T04:54:36;2.13;;;0.70;;
22814;SDS011;11574;51.058;13.712;2023-04-24T04:59:38;6.20;;;0.60;;
22814;SDS011;11574;51.058;13.712;2023-04-24T05:04:41;3.17;;;0.83;;
22814;SDS011;11574;51.058;13.712;2023-04-24T05:09:44;1.83;;;0.90;;
22814;SDS011;11574;51.058;13.712;2023-04-24T05:14:46;1.10;;;0.70;;
22814;SDS011;11574;51.058;13.712;2023-04-24T05:19:49;2.10;;;0.70;;
22814;SDS011;11574;51.058;13.712;2023-04-24T05:24:52;1.30;;;0.60;;
22814;SDS011;11574;51.058;13.712;2023-04-24T05:29:54;2.50;;;1.20;;
22814;SDS011;11574;51.058;13.712;2023-04-24T05:34:57;2.73;;;0.80;;
22814;SDS011;11574;51.058;13.712;2023-04-24T05:40:00;1.53;;;0.90;;
22814;SDS011;11574;51.058;13.712;2023-04-24T05:45:06;0.80;;;0.63;;
22814;SDS011;11574;51.058;13.712;2023-04-24T05:50:09;2.83;;;0.93;;
22814;SDS011;11574;51.058;13.712;2023-04-24T05:55:13;3.30;;;0.70;;
22814;SDS011;11574;51.058;13.712;2023-04-24T06:00:17;1.20;;;0.70;;
22814;SDS011;11574;51.058;13.712;2023-04-24T06:05:20;1.77;;;0.87;;
22814;SDS011;11574;51.058;13.712;2023-04-24T06:10:23;1.70;;;0.80;;
22814;SDS011;11574;51.058;13.712;2023-04-24T06:15:27;2.23;;;0.67;;
22814;SDS011;11574;51.058;13.712;2023-04-24T06:20:29;2.30;;;0.70;;
22814;SDS011;11574;51.058;13.712;2023-04-24T06:25:32;2.70;;;0.97;;
22814;SDS011;11574;51.058;13.712;2023-04-24T06:30:35;2.10;;;0.80;;
22814;SDS011;11574;51.058;13.712;2023-04-24T06:35:37;1.73;;;0.80;;
22814;SDS011;11574;51.058;13.712;2023-04-24T06:40:40;3.33;;;0.93;;
22814;SDS011;11574;51.058;13.712;2023-04-24T06:45:43;3.37;;;0.90;;
22814;SDS011;11574;51.058;13.712;2023-04-24T06:50:46;3.57;;;0.90;;
22814;SDS011;11574;51.058;13.712;2023-04-24T06:55:49;6.07;;;2.90;;
22814;SDS011;11574;51.058;13.712;2023-04-24T07:00:52;6.27;;;1.47;;
22814;SDS011;11574;51.058;13.712;2023-04-24T07:05:54;2.10;;;0.90;;
22814;SDS011;11574;51.058;13.712;2023-04-24T07:10:59;0.73;;;0.57;;
22814;SDS011;11574;51.058;13.712;2023-04-24T07:16:01;1.93;;;0.60;;
22814;SDS011;11574;51.058;13.712;2023-04-24T07:21:04;3.13;;;0.80;;
22814;SDS011;11574;51.058;13.712;2023-04-24T07:26:07;6.87;;;1.43;;
22814;SDS011;11574;51.058;13.712;2023-04-24T07:31:10;3.17;;;0.80;;
22814;SDS011;11574;51.058;13.712;2023-04-24T07:36:13;4.20;;;0.90;;
22814;SDS011;11574;51.058;13.712;2023-04-24T07:41:20;0.90;;;0.57;;
22814;SDS011;11574;51.058;13.712;2023-04-24T07:46:22;3.23;;;0.70;;
22814;SDS011;11574;51.058;13.712;2023-04-24T07:51:25;2.10;;;0.70;;
22814;SDS011;11574;51.058;13.712;2023-04-24T07:56:29;1.23;;;0.70;;
22814;SDS011;11574;51.058;13.712;2023-04-24T08:01:31;3.83;;;1.33;;
22814;SDS011;11574;51.058;13.712;2023-04-24T08:06:33;5.83;;;1.93;;
22814;SDS011;11574;51.058;13.712;2023-04-24T08:11:37;2.10;;;0.63;;
22814;SDS011;11574;51.058;13.712;2023-04-24T08:16:39;2.17;;;0.60;;
22814;SDS011;11574;51.058;13.712;2023-04-24T08:21:41;2.67;;;0.60;;
22814;SDS011;11574;51.058;13.712;2023-04-24T08:26:45;1.27;;;0.53;;
22814;SDS011;11574;51.058;13.712;2023-04-24T08:31:50;2.37;;;0.67;;
22814;SDS011;11574;51.058;13.712;2023-04-24T08:36:54;2.60;;;0.60;;
22814;SDS011;11574;51.058;13.712;2023-04-24T08:41:58;1.87;;;0.60;;
22814;SDS011;11574;51.058;13.712;2023-04-24T08:47:05;5.67;;;0.87;;
22814;SDS011;11574;51.058;13.712;2023-04-24T08:52:09;2.43;;;0.90;;
22814;SDS011;11574;51.058;13.712;2023-04-24T08:57:14;3.10;;;0.70;;
22814;SDS011;11574;51.058;13.712;2023-04-24T09:02:16;4.03;;;1.07;;
22814;SDS011;11574;51.058;13.712;2023-04-24T09:07:19;0.60;;;0.40;;
22814;SDS011;11574;51.058;13.712;2023-04-24T09:12:25;1.40;;;0.50;;
22814;SDS011;11574;51.058;13.712;2023-04-24T09:17:27;1.87;;;0.70;;
22814;SDS011;11574;51.058;13.712;2023-04-24T09:22:29;2.07;;;0.63;;
22814;SDS011;11574;51.058;13.712;2023-04-24T09:27:33;3.43;;;0.77;;
22814;SDS011;11574;51.058;13.712;2023-04-24T09:32:36;5.20;;;0.90;;
22814;SDS011;11574;51.058;13.712;2023-04-24T09:37:38;3.20;;;0.50;;
22814;SDS011;11574;51.058;13.712;2023-04-24T09:42:45;1.13;;;0.70;;
22814;SDS011;11574;51.058;13.712;2023-04-24T09:47:51;2.47;;;1.13;;
22814;SDS011;11574;51.058;13.712;2023-04-24T09:52:58;0.93;;;0.60;;
22814;SDS011;11574;51.058;13.712;2023-04-24T09:58:02;0.50;;;0.40;;
22814;SDS011;11574;51.058;13.712;2023-04-24T10:03:05;0.90;;;0.50;;
22814;SDS011;11574;51.058;13.712;2023-04-24T10:08:08;0.93;;;0.50;;
22814;SDS011;11574;51.058;13.712;2023-04-24T10:13:12;1.47;;;0.50;;
22814;SDS011;11574;51.058;13.712;2023-04-24T10:18:15;1.93;;;0.97;;
22814;SDS011;11574;51.058;13.712;2023-04-24T10:23:17;3.53;;;1.40;;
22814;SDS011;11574;51.058;13.712;2023-04-24T10:28:22;2.50;;;0.90;;
22814;SDS011;11574;51.058;13.712;2023-04-24T10:33:25;2.80;;;0.60;;
22814;SDS011;11574;51.058;13.712;2023-04-24T10:38:27;2.33;;;0.60;;
22814;SDS011;11574;51.058;13.712;2023-04-24T10:43:32;3.93;;;1.97;;
22814;SDS011;11574;51.058;13.712;2023-04-24T10:48:35;1.83;;;0.80;;
22814;SDS011;11574;51.058;13.712;2023-04-24T10:53:37;12.33;;;1.30;;
22814;SDS011;11574;51.058;13.712;2023-04-24T10:58:41;3.37;;;1.03;;
22814;SDS011;11574;51.058;13.712;2023-04-24T11:03:50;1.60;;;1.17;;
22814;SDS011;11574;51.058;13.712;2023-04-24T11:08:52;2.70;;;1.80;;
22814;SDS011;11574;51.058;13.712;2023-04-24T11:14:10;1.10;;;0.60;;
22814;SDS011;11574;51.058;13.712;2023-04-24T11:19:20;1.30;;;0.63;;
22814;SDS011;11574;51.058;13.712;2023-04-24T11:24:24;1.53;;;0.60;;
22814;SDS011;11574;51.058;13.712;2023-04-24T11:29:44;1.07;;;0.60;;
22814;SDS011;11574;51.058;13.712;2023-04-24T11:34:47;0.73;;;0.40;;
22814;SDS011;11574;51.058;13.712;2023-04-24T11:39:50;3.43;;;0.70;;
22814;SDS011;11574;51.058;13.712;2023-04-24T11:44:54;1.43;;;0.50;;
22814;SDS011;11574;51.058;13.712;2023-04-24T11:49:57;2.73;;;1.10;;
22814;SDS011;11574;51.058;13.712;2023-04-24T11:55:00;1.40;;;0.70;;
22814;SDS011;11574;51.058;13.712;2023-04-24T12:00:05;1.00;;;0.60;;
22814;SDS011;11574;51.058;13.712;2023-04-24T12:05:08;2.60;;;0.80;;
22814;SDS011;11574;51.058;13.712;2023-04-24T12:10:11;0.40;;;0.40;;
22814;SDS011;11574;51.058;13.712;2023-04-24T12:15:16;1.30;;;0.70;;
22814;SDS011;11574;51.058;13.712;2023-04-24T12:20:23;2.00;;;0.90;;
22814;SDS011;11574;51.058;13.712;2023-04-24T12:25:26;2.27;;;0.70;;
22814;SDS011;11574;51.058;13.712;2023-04-24T12:30:30;3.30;;;0.80;;
22814;SDS011;11574;51.058;13.712;2023-04-24T12:35:33;3.40;;;1.00;;
22814;SDS011;11574;51.058;13.712;2023-04-24T12:40:35;8.60;;;1.30;;
22814;SDS011;11574;51.058;13.712;2023-04-24T12:45:39;2.97;;;0.90;;
22814;SDS011;11574;51.058;13.712;2023-04-24T12:50:41;13.63;;;1.13;;
22814;SDS011;11574;51.058;13.712;2023-04-24T12:55:44;6.43;;;1.03;;
22814;SDS011;11574;51.058;13.712;2023-04-24T13:00:48;4.67;;;1.27;;
22814;SDS011;11574;51.058;13.712;2023-04-24T13:05:50;3.03;;;1.00;;
22814;SDS011;11574;51.058;13.712;2023-04-24T13:10:53;1.10;;;0.70;;
22814;SDS011;11574;51.058;13.712;2023-04-24T13:15:56;2.20;;;1.00;;
22814;SDS011;11574;51.058;13.712;2023-04-24T13:20:58;9.50;;;1.53;;
22814;SDS011;11574;51.058;13.712;2023-04-24T13:26:00;8.87;;;1.13;;
22814;SDS011;11574;51.058;13.712;2023-04-24T13:31:04;4.00;;;0.80;;
22814;SDS011;11574;51.058;13.712;2023-04-24T13:36:07;0.70;;;0.60;;
22814;SDS011;11574;51.058;13.712;2023-04-24T13:41:09;2.87;;;0.87;;
22814;SDS011;11574;51.058;13.712;2023-04-24T13:46:12;2.57;;;0.83;;
22814;SDS011;11574;51.058;13.712;2023-04-24T13:51:15;3.77;;;0.97;;
22814;SDS011;11574;51.058;13.712;2023-04-24T13:56:17;2.63;;;0.90;;
22814;SDS011;11574;51.058;13.712;2023-04-24T14:01:22;4.97;;;1.03;;
22814;SDS011;11574;51.058;13.712;2023-04-24T14:06:24;2.30;;;0.80;;
22814;SDS011;11574;51.058;13.712;2023-04-24T14:11:27;2.13;;;1.07;;
22814;SDS011;11574;51.058;13.712;2023-04-24T14:16:30;1.30;;;1.00;;
22814;SDS011;11574;51.058;13.712;2023-04-24T14:21:33;3.70;;;0.80;;
22814;SDS011;11574;51.058;13.712;2023-04-24T14:26:35;3.10;;;1.30;;
22814;SDS011;11574;51.058;13.712;2023-04-24T14:31:38;4.43;;;1.20;;
22814;SDS011;11574;51.058;13.712;2023-04-24T14:36:41;3.73;;;0.90;;
22814;SDS011;11574;51.058;13.712;2023-04-24T14:41:43;3.73;;;1.07;;
22814;SDS011;11574;51.058;13.712;2023-04-24T14:46:47;1.90;;;1.13;;
22814;SDS011;11574;51.058;13.712;2023-04-24T14:51:50;2.60;;;1.10;;
22814;SDS011;11574;51.058;13.712;2023-04-24T14:56:52;2.73;;;1.13;;
22814;SDS011;11574;51.058;13.712;2023-04-24T15:01:58;5.03;;;1.00;;
22814;SDS011;11574;51.058;13.712;2023-04-24T15:07:00;2.53;;;1.00;;
22814;SDS011;11574;51.058;13.712;2023-04-24T15:12:02;1.10;;;0.80;;
22814;SDS011;11574;51.058;13.712;2023-04-24T15:17:06;1.23;;;0.90;;
22814;SDS011;11574;51.058;13.712;2023-04-24T15:22:09;1.87;;;0.90;;
22814;SDS011;11574;51.058;13.712;2023-04-24T15:27:11;1.13;;;0.80;;
22814;SDS011;11574;51.058;13.712;2023-04-24T15:32:15;1.60;;;0.70;;
22814;SDS011;11574;51.058;13.712;2023-04-24T15:37:17;1.43;;;0.80;;
22814;SDS011;11574;51.058;13.712;2023-04-24T15:42:19;4.10;;;0.90;;
22814;SDS011;11574;51.058;13.712;2023-04-24T15:47:23;3.27;;;0.80;;
22814;SDS011;11574;51.058;13.712;2023-04-24T15:52:25;3.70;;;1.10;;
22814;SDS011;11574;51.058;13.712;2023-04-24T15:57:28;3.07;;;1.77;;
22814;SDS011;11574;51.058;13.712;2023-04-24T16:02:31;3.40;;;1.30;;
22814;SDS011;11574;51.058;13.712;2023-04-24T16:07:33;2.93;;;1.53;;
22814;SDS011;11574;51.058;13.712;2023-04-24T16:12:36;0.87;;;0.70;;
22814;SDS011;11574;51.058;13.712;2023-04-24T16:17:39;3.70;;;1.07;;
22814;SDS011;11574;51.058;13.712;2023-04-24T16:22:41;1.40;;;0.73;;
22814;SDS011;11574;51.058;13.712;2023-04-24T16:27:44;3.43;;;1.23;;
22814;SDS011;11574;51.058;13.712;2023-04-24T16:32:49;1.13;;;0.83;;
22814;SDS011;11574;51.058;13.712;2023-04-24T16:37:51;4.17;;;1.30;;
22814;SDS011;11574;51.058;13.712;2023-04-24T16:42:53;3.57;;;1.00;;
22814;SDS011;11574;51.058;13.712;2023-04-24T16:47:57;1.20;;;0.90;;
22814;SDS011;11574;51.058;13.712;2023-04-24T16:52:59;0.87;;;0.80;;
22814;SDS011;11574;51.058;13.712;2023-04-24T16:58:01;1.13;;;0.87;;
22814;SDS011;11574;51.058;13.712;2023-04-24T17:03:04;1.13;;;0.80;;
22814;SDS011;11574;51.058;13.712;2023-04-24T17:08:07;5.50;;;1.03;;
22814;SDS011;11574;51.058;13.712;2023-04-24T17:13:09;4.00;;;0.60;;
22814;SDS011;11574;51.058;13.712;2023-04-24T17:18:14;2.17;;;0.70;;
22814;SDS011;11574;51.058;13.712;2023-04-24T17:23:17;1.53;;;0.87;;
22814;SDS011;11574;51.058;13.712;2023-04-24T17:28:22;1.83;;;0.80;;
22814;SDS011;11574;51.058;13.712;2023-04-24T17:33:27;2.73;;;0.80;;
22814;SDS011;11574;51.058;13.712;2023-04-24T17:38:30;1.33;;;0.77;;
22814;SDS011;11574;51.058;13.712;2023-04-24T17:43:32;2.07;;;0.90;;
22814;SDS011;11574;51.058;13.712;2023-04-24T17:48:35;3.87;;;0.80;;
22814;SDS011;11574;51.058;13.712;2023-04-24T17:53:38;2.13;;;0.90;;
22814;SDS011;11574;51.058;13.712;2023-04-24T17:58:40;1.53;;;0.60;;
22814;SDS011;11574;51.058;13.712;2023-04-24T18:03:44;5.13;;;0.70;;
22814;SDS011;11574;51.058;13.712;2023-04-24T18:08:46;2.93;;;0.60;;
22814;SDS011;11574;51.058;13.712;2023-04-24T18:13:49;4.43;;;0.50;;
22814;SDS011;11574;51.058;13.712;2023-04-24T18:18:52;5.27;;;0.70;;
22814;SDS011;11574;51.058;13.712;2023-04-24T18:23:55;6.63;;;1.00;;
22814;SDS011;11574;51.058;13.712;2023-04-24T18:28:59;5.63;;;0.70;;
22814;SDS011;11574;51.058;13.712;2023-04-24T18:34:02;3.57;;;0.80;;
22814;SDS011;11574;51.058;13.712;2023-04-24T18:39:05;2.47;;;0.87;;
22814;SDS011;11574;51.058;13.712;2023-04-24T18:44:07;0.77;;;0.40;;
22814;SDS011;11574;51.058;13.712;2023-04-24T18:49:12;2.37;;;0.60;;
22814;SDS011;11574;51.058;13.712;2023-04-24T18:54:14;1.17;;;0.60;;
22814;SDS011;11574;51.058;13.712;2023-04-24T18:59:16;3.10;;;0.60;;
22814;SDS011;11574;51.058;13.712;2023-04-24T19:04:20;0.87;;;0.60;;
22814;SDS011;11574;51.058;13.712;2023-04-24T19:09:22;1.87;;;1.20;;
22814;SDS011;11574;51.058;13.712;2023-04-24T19:14:24;0.97;;;0.80;;
22814;SDS011;11574;51.058;13.712;2023-04-24T19:19:28;0.57;;;0.57;;
22814;SDS011;11574;51.058;13.712;2023-04-24T19:24:31;0.77;;;0.60;;
22814;SDS011;11574;51.058;13.712;2023-04-24T19:29:33;1.10;;;0.80;;
22814;SDS011;11574;51.058;13.712;2023-04-24T19:34:37;1.03;;;0.70;;
22814;SDS011;11574;51.058;13.712;2023-04-24T19:39:39;3.13;;;0.80;;
22814;SDS011;11574;51.058;13.712;2023-04-24T19:44:42;1.87;;;0.90;;
22814;SDS011;11574;51.058;13.712;2023-04-24T19:49:46;2.27;;;0.83;;
22814;SDS011;11574;51.058;13.712;2023-04-24T19:54:48;1.77;;;0.80;;
22814;SDS011;11574;51.058;13.712;2023-04-24T19:59:51;3.10;;;1.10;;
22814;SDS011;11574;51.058;13.712;2023-04-24T20:04:54;1.40;;;1.00;;
22814;SDS011;11574;51.058;13.712;2023-04-24T20:09:57;2.07;;;0.93;;
22814;SDS011;11574;51.058;13.712;2023-04-24T20:14:59;1.67;;;1.10;;
22814;SDS011;11574;51.058;13.712;2023-04-24T20:20:03;1.77;;;1.37;;
22814;SDS011;11574;51.058;13.712;2023-04-24T20:25:05;1.53;;;1.10;;
22814;SDS011;11574;51.058;13.712;2023-04-24T20:30:08;2.57;;;1.23;;
22814;SDS011;11574;51.058;13.712;2023-04-24T20:35:13;4.37;;;1.50;;
22814;SDS011;11574;51.058;13.712;2023-04-24T20:40:15;1.83;;;1.30;;
22814;SDS011;11574;51.058;13.712;2023-04-24T20:45:18;1.40;;;1.03;;
22814;SDS011;11574;51.058;13.712;2023-04-24T20:50:22;2.37;;;1.50;;
22814;SDS011;11574;51.058;13.712;2023-04-24T20:55:25;4.73;;;1.70;;
22814;SDS011;11574;51.058;13.712;2023-04-24T21:00:27;2.83;;;1.67;;
22814;SDS011;11574;51.058;13.712;2023-04-24T21:05:31;2.90;;;1.60;;
22814;SDS011;11574;51.058;13.712;2023-04-24T21:10:33;3.30;;;1.70;;
22814;SDS011;11574;51.058;13.712;2023-04-24T21:15:36;5.33;;;1.70;;
22814;SDS011;11574;51.058;13.712;2023-04-24T21:20:39;5.17;;;2.30;;
22814;SDS011;11574;51.058;13.712;2023-04-24T21:25:41;3.03;;;1.80;;
22814;SDS011;11574;51.058;13.712;2023-04-24T21:30:44;2.83;;;1.80;;
22814;SDS011;11574;51.058;13.712;2023-04-24T21:35:47;3.67;;;1.63;;
22814;SDS011;11574;51.058;13.712;2023-04-24T21:40:49;2.83;;;1.80;;
22814;SDS011;11574;51.058;13.712;2023-04-24T21:45:51;3.03;;;1.60;;
22814;SDS011;11574;51.058;13.712;2023-04-24T21:50:56;4.67;;;1.93;;
22814;SDS011;11574;51.058;13.712;2023-04-24T21:55:59;11.60;;;5.33;;
22814;SDS011;11574;51.058;13.712;2023-04-24T22:01:01;4.37;;;2.27;;
22814;SDS011;11574;51.058;13.712;2023-04-24T22:06:05;3.03;;;2.07;;
22814;SDS011;11574;51.058;13.712;2023-04-24T22:11:07;3.70;;;2.10;;
22814;SDS011;11574;51.058;13.712;2023-04-24T22:16:10;4.73;;;2.00;;
22814;SDS011;11574;51.058;13.712;2023-04-24T22:21:14;3.90;;;2.07;;
22814;SDS011;11574;51.058;13.712;2023-04-24T22:26:16;5.73;;;2.03;;
22814;SDS011;11574;51.058;13.712;2023-04-24T22:31:18;5.73;;;2.53;;
22814;SDS011;11574;51.058;13.712;2023-04-24T22:36:22;3.93;;;2.10;;
22814;SDS011;11574;51.058;13.712;2023-04-24T22:41:24;3.70;;;2.20;;
22814;SDS011;11574;51.058;13.712;2023-04-24T22:46:26;6.43;;;2.27;;
22814;SDS011;11574;51.058;13.712;2023-04-24T22:51:31;4.97;;;2.00;;
22814;SDS011;11574;51.058;13.712;2023-04-24T22:56:34;5.90;;;2.90;;
22814;SDS011;11574;51.058;13.712;2023-04-24T23:01:36;3.40;;;1.67;;
22814;SDS011;11574;51.058;13.712;2023-04-24T23:06:40;2.97;;;1.80;;
22814;SDS011;11574;51.058;13.712;2023-04-24T23:11:42;2.93;;;1.80;;
22814;SDS011;11574;51.058;13.712;2023-04-24T23:16:44;4.17;;;1.87;;
22814;SDS011;11574;51.058;13.712;2023-04-24T23:21:48;7.03;;;2.27;;
22814;SDS011;11574;51.058;13.712;2023-04-24T23:26:51;6.17;;;1.93;;
22814;SDS011;11574;51.058;13.712;2023-04-24T23:31:53;3.67;;;1.90;;
22814;SDS011;11574;51.058;13.712;2023-04-24T23:36:57;5.03;;;2.10;;
22814;SDS011;11574;51.058;13.712;2023-04-24T23:41:59;5.13;;;2.10;;
22814;SDS011;11574;51.058;13.712;2023-04-24T23:47:03;3.37;;;2.00;;
22814;SDS011;11574;51.058;13.712;2023-04-24T23:52:06;3.23;;;2.13;;
22814;SDS011;11574;51.058;13.712;2023-04-24T23:57:09;5.13;;;2.37;;
